MDT,Max TemperatureF,Mean TemperatureF,Min TemperatureF,Max Dew PointF,MeanDew PointF,Min DewpointF,Max Humidity, Mean Humidity, Min Humidity, Max Sea Level PressureIn, Mean Sea Level PressureIn, Min Sea Level PressureIn, Max VisibilityMiles, Mean VisibilityMiles, Min VisibilityMiles, Max Wind SpeedMPH, Mean Wind SpeedMPH, Max Gust SpeedMPH,PrecipitationIn, CloudCover, Events, WindDirDegrees
2013-5-1,51,43,35,28,16,9,70,36,25,30.56,30.32,30.09,15,12,10,21,15,30,0.00,1,,322
2013-5-2,59,44,30,30,23,10,75,47,18,30.66,30.55,30.41,15,12,10,12,5,,0.00,0,,255
2013-5-3,69,51,33,36,27,12,81,47,11,30.41,30.22,29.99,15,12,10,13,6,,0.00,1,,213
2013-5-4,66,52,37,37,31,19,71,48,21,30.00,29.94,29.87,15,12,10,13,5,,0.00,1,,211
2013-5-5,78,63,48,43,34,25,66,41,14,29.93,29.88,29.79,15,12,10,17,7,25,0.00,3,,304
2013-5-6,68,60,51,45,36,30,71,48,31,30.02,29.97,29.92,15,12,10,20,9,30,0.00,5,Rain,145
2013-5-7,66,54,42,45,40,36,93,72,35,30.05,30.00,29.90,15,11,6,23,9,36,0.31,3,Rain-Thunderstorm,143
2013-5-8,60,51,42,46,42,37,87,77,48,30.12,30.06,30.02,15,12,10,17,5,23,0.01,4,Rain,125
2013-5-9,71,56,42,48,41,28,87,67,29,30.17,30.12,30.07,15,12,10,12,4,,0.02,2,,160
2013-5-10,75,62,48,45,40,34,71,52,25,30.29,30.20,30.15,15,12,10,15,5,,0.00,2,,150
2013-5-11,77,62,48,46,40,30,76,52,18,30.37,30.30,30.25,15,12,10,10,5,,0.00,1,,150
2013-5-12,82,64,46,52,40,28,71,51,15,30.34,30.27,30.17,15,12,10,8,4,,0.00,1,,136
2013-5-13,87,69,51,46,42,34,71,47,15,30.25,30.16,30.03,15,12,10,10,4,,0.00,1,,140
2013-5-14,84,68,53,52,42,36,67,44,18,30.09,30.00,29.90,15,12,10,13,5,,0.00,1,,109
2013-5-15,86,72,57,50,43,36,63,45,17,29.99,29.91,29.82,15,12,10,17,7,28,0.00,2,,138
2013-5-16,80,68,55,48,43,37,63,46,23,29.91,29.84,29.74,15,12,10,21,6,25,0.00,3,,149
2013-5-17,64,58,51,48,44,37,88,62,37,30.00,29.88,29.82,15,12,10,17,8,20,0.08,4,Rain,1
2013-5-18,75,62,48,63,44,36,88,70,42,30.06,30.02,29.99,15,12,8,17,7,23,0.01,6,Rain,181
2013-5-19,60,52,44,43,39,36,81,64,42,30.11,30.06,30.03,15,12,10,22,6,29,0.00,4,,313
2013-5-20,62,55,48,52,42,37,82,69,48,30.19,30.13,30.09,15,11,8,18,8,24,0.00,6,Rain,311
2013-5-21,75,60,44,45,40,28,93,62,23,30.14,29.99,29.79,15,12,10,15,4,,0.00,1,,133
2013-5-22,84,68,51,43,36,32,54,41,15,29.79,29.72,29.59,15,12,10,121,12,36,0.00,1,,124
2013-5-23,73,58,44,43,35,30,66,50,20,29.96,29.83,29.69,15,12,10,25,11,40,0.00,0,,316
2013-5-24,75,60,44,45,35,21,81,48,14,30.09,30.00,29.91,15,12,10,18,9,21,0.00,0,,299
2013-5-25,80,66,51,43,34,28,63,36,16,29.96,29.91,29.85,15,12,10,17,8,23,0.00,1,,149
2013-5-26,80,65,50,45,32,25,50,31,14,29.98,29.90,29.81,15,12,10,16,7,,0.00,2,,138
2013-5-27,71,64,57,45,40,34,63,43,27,30.01,29.91,29.81,15,12,10,22,12,30,0.00,2,,308
2013-5-28,64,56,48,46,42,36,93,63,37,29.91,29.82,29.75,15,11,7,21,10,26,0.10,5,Rain,70
2013-5-29,62,54,46,46,42,34,93,70,34,29.91,29.87,29.83,15,12,10,10,4,,0.00,5,,84
2013-5-30,66,54,42,43,38,34,87,60,30,30.01,29.96,29.90,15,12,10,13,5,,0.00,1,,358
2013-5-31,68,56,44,39,34,23,81,50,22,30.23,30.13,30.00,15,12,10,18,6,17,0.00,0,,337